createdAt,value
2022-09-27T00:01:08.499Z,0.80
2022-09-27T00:03:58.742Z,1.15
2022-09-27T00:06:44.476Z,0.90
2022-09-27T00:09:30.290Z,1.00
2022-09-27T00:12:15.835Z,0.90
2022-09-27T00:15:02.227Z,0.70
2022-09-27T00:17:51.970Z,0.70
2022-09-27T00:20:37.568Z,0.95
2022-09-27T00:23:23.491Z,0.88
2022-09-27T00:26:12.387Z,1.08
2022-09-27T00:28:58.299Z,1.10
2022-09-27T00:31:44.844Z,1.15
2022-09-27T00:34:30.339Z,1.58
2022-09-27T00:37:16.016Z,1.48
2022-09-27T00:40:02.219Z,1.20
2022-09-27T00:42:48.372Z,1.10
2022-09-27T00:45:33.845Z,1.10
2022-09-27T00:48:24.948Z,1.25
2022-09-27T00:51:11.037Z,1.20
2022-09-27T00:53:59.300Z,1.38
2022-09-27T00:56:46.571Z,1.17
2022-09-27T00:59:52.471Z,1.10
2022-09-27T01:02:42.603Z,1.02
2022-09-27T01:05:29.841Z,1.15
2022-09-27T01:08:15.302Z,1.60
2022-09-27T01:11:13.103Z,0.95
2022-09-27T01:14:09.411Z,1.00
2022-09-27T01:17:16.993Z,1.10
2022-09-27T01:20:11.740Z,0.95
2022-09-27T01:23:18.554Z,0.90
2022-09-27T01:26:30.172Z,1.77
2022-09-27T01:29:24.423Z,3.00
2022-09-27T01:32:22.021Z,2.80
2022-09-27T01:35:20.214Z,3.63
2022-09-27T01:38:30.490Z,4.32
2022-09-27T01:41:31.015Z,6.35
2022-09-27T01:45:03.980Z,7.00
2022-09-27T01:48:02.672Z,7.85
2022-09-27T01:51:16.445Z,6.30
2022-09-27T01:54:04.686Z,7.75
2022-09-27T01:57:21.863Z,7.15
2022-09-27T02:00:10.911Z,7.88
2022-09-27T02:03:09.548Z,7.60
2022-09-27T02:06:30.158Z,6.93
2022-09-27T02:09:39.344Z,7.07
2022-09-27T02:12:38.131Z,8.63
2022-09-27T02:15:40.962Z,9.73
2022-09-27T02:18:56.080Z,9.75
2022-09-27T02:22:06.202Z,9.98
2022-09-27T02:25:15.987Z,10.13
2022-09-27T02:28:26.349Z,10.80
2022-09-27T02:31:12.628Z,10.30
2022-09-27T02:34:06.301Z,11.52
2022-09-27T02:36:53.610Z,11.70
2022-09-27T02:39:39.554Z,10.80
2022-09-27T02:42:28.477Z,11.77
2022-09-27T02:45:17.370Z,12.55
2022-09-27T02:48:07.197Z,14.18
2022-09-27T02:51:06.007Z,13.38
2022-09-27T02:54:27.360Z,13.55
2022-09-27T02:57:48.380Z,15.18
2022-09-27T03:01:00.553Z,14.13
2022-09-27T03:04:51.174Z,14.27
2022-09-27T03:07:38.711Z,18.02
2022-09-27T03:10:28.521Z,16.95
2022-09-27T03:13:13.983Z,17.70
2022-09-27T03:16:01.924Z,19.00
2022-09-27T03:19:26.339Z,18.40
2022-09-27T03:22:30.835Z,19.23
2022-09-27T03:25:16.694Z,19.40
2022-09-27T03:28:02.626Z,20.27
2022-09-27T03:30:48.709Z,21.08
2022-09-27T03:34:10.175Z,19.83
2022-09-27T03:36:56.246Z,21.25
2022-09-27T03:39:41.667Z,22.98
2022-09-27T03:42:27.622Z,22.45
2022-09-27T03:45:13.763Z,23.15
2022-09-27T03:48:00.109Z,22.00
2022-09-27T03:50:45.951Z,20.40
2022-09-27T03:53:31.440Z,17.60
2022-09-27T03:56:17.955Z,16.30
2022-09-27T03:59:03.749Z,15.27
2022-09-27T04:02:00.448Z,15.27
2022-09-27T04:05:06.366Z,15.07
2022-09-27T04:07:52.704Z,14.30
2022-09-27T04:10:39.146Z,15.35
2022-09-27T04:13:24.923Z,14.65
2022-09-27T04:16:14.002Z,15.55
2022-09-27T04:19:10.946Z,15.68
2022-09-27T04:21:56.883Z,16.30
2022-09-27T04:24:42.683Z,17.65
2022-09-27T04:27:46.769Z,16.90
2022-09-27T04:30:33.163Z,16.38
2022-09-27T04:33:31.201Z,17.05
2022-09-27T04:36:36.799Z,16.70
2022-09-27T04:39:32.519Z,16.63
2022-09-27T04:42:18.644Z,17.30
2022-09-27T04:45:05.210Z,17.40
2022-09-27T04:47:53.123Z,17.85
2022-09-27T04:50:40.187Z,18.08
2022-09-27T04:53:26.444Z,18.63
2022-09-27T04:56:13.427Z,18.17
2022-09-27T04:58:59.091Z,17.83
2022-09-27T05:01:45.478Z,18.45
2022-09-27T05:04:47.643Z,17.40
2022-09-27T05:07:35.723Z,19.10
2022-09-27T05:10:26.612Z,19.00
2022-09-27T05:13:12.377Z,18.55
2022-09-27T05:16:03.959Z,18.85
2022-09-27T05:19:18.912Z,19.58
2022-09-27T05:22:27.455Z,20.42
2022-09-27T05:25:13.177Z,20.00
2022-09-27T05:27:59.466Z,20.60
2022-09-27T05:30:46.177Z,19.45
2022-09-27T05:33:37.488Z,20.85
2022-09-27T05:36:42.094Z,21.42
2022-09-27T05:39:29.539Z,19.52
2022-09-27T05:42:15.554Z,19.42
2022-09-27T05:45:02.143Z,18.92
2022-09-27T05:47:56.427Z,18.85
2022-09-27T05:50:42.593Z,17.48
2022-09-27T05:53:29.358Z,16.20
2022-09-27T05:56:14.838Z,16.23
2022-09-27T05:59:19.617Z,17.40
2022-09-27T06:02:24.838Z,17.38
2022-09-27T06:05:34.681Z,16.63
2022-09-27T06:08:53.640Z,18.08
2022-09-27T06:11:44.424Z,18.55
2022-09-27T06:14:32.203Z,18.38
2022-09-27T06:17:23.326Z,18.30
2022-09-27T06:20:10.153Z,17.35
2022-09-27T06:23:13.638Z,17.13
2022-09-27T06:26:08.076Z,16.92
2022-09-27T06:29:09.771Z,18.33
2022-09-27T06:31:59.624Z,18.83
2022-09-27T06:35:07.646Z,19.67
2022-09-27T06:37:53.939Z,18.00
2022-09-27T06:40:40.582Z,20.33
2022-09-27T06:43:37.315Z,19.48
2022-09-27T06:46:55.202Z,22.38
2022-09-27T06:50:05.996Z,20.15
2022-09-27T06:52:52.691Z,21.40
2022-09-27T06:55:39.849Z,21.02
2022-09-27T06:58:44.608Z,19.50
2022-09-27T07:01:57.835Z,19.77
2022-09-27T07:05:10.454Z,19.17
2022-09-27T07:08:16.211Z,20.48
2022-09-27T07:11:05.747Z,19.90
2022-09-27T07:13:51.920Z,20.15
2022-09-27T07:16:37.893Z,20.02
2022-09-27T07:19:25.102Z,20.73
2022-09-27T07:22:11.206Z,20.73
2022-09-27T07:24:57.532Z,19.45
2022-09-27T07:27:44.843Z,19.77
2022-09-27T07:30:33.062Z,21.05
2022-09-27T07:33:20.013Z,19.85
2022-09-27T07:36:10.400Z,20.08
2022-09-27T07:39:00.346Z,20.50
2022-09-27T07:41:46.792Z,19.58
2022-09-27T07:44:32.805Z,20.55
2022-09-27T07:47:39.721Z,21.02
2022-09-27T07:50:40.424Z,21.00
2022-09-27T07:53:57.711Z,20.27
2022-09-27T07:56:59.152Z,21.25
2022-09-27T07:59:45.256Z,20.38
2022-09-27T08:02:34.293Z,21.35
2022-09-27T08:05:21.333Z,19.83
2022-09-27T08:08:07.433Z,19.90
2022-09-27T08:10:52.906Z,20.30
2022-09-27T08:13:40.119Z,21.02
2022-09-27T08:16:25.739Z,18.63
2022-09-27T08:19:30.341Z,20.23
2022-09-27T08:22:21.240Z,21.65
2022-09-27T08:25:17.731Z,20.92
2022-09-27T08:28:22.720Z,18.88
2022-09-27T08:31:16.710Z,16.92
2022-09-27T08:34:02.674Z,16.25
2022-09-27T08:36:48.326Z,19.75
2022-09-27T08:39:33.865Z,18.52
2022-09-27T08:42:35.110Z,17.75
2022-09-27T08:45:30.817Z,16.05
2022-09-27T08:48:18.285Z,17.02
2022-09-27T08:51:06.885Z,17.40
2022-09-27T08:54:03.823Z,16.17
2022-09-27T08:56:49.715Z,14.35
2022-09-27T09:00:07.335Z,17.98
2022-09-27T09:02:53.704Z,14.00
2022-09-27T09:05:39.657Z,16.55
2022-09-27T09:09:02.483Z,14.88
2022-09-27T09:12:36.411Z,15.43
2022-09-27T09:15:30.920Z,15.30
2022-09-27T09:18:31.902Z,14.15
2022-09-27T09:21:43.903Z,15.63
2022-09-27T09:24:55.345Z,14.85
2022-09-27T09:27:53.819Z,14.40
2022-09-27T09:31:13.148Z,14.18
2022-09-27T09:34:09.790Z,14.63
2022-09-27T09:37:16.294Z,13.77
2022-09-27T09:40:22.088Z,15.45
2022-09-27T09:43:22.432Z,14.27
2022-09-27T09:46:17.760Z,13.05
2022-09-27T09:49:17.461Z,16.02
2022-09-27T09:52:12.982Z,14.25
2022-09-27T09:55:07.352Z,13.07
2022-09-27T09:58:19.803Z,11.43
2022-09-27T10:01:25.174Z,11.55
2022-09-27T10:04:28.097Z,13.55
2022-09-27T10:07:20.528Z,12.90
2022-09-27T10:10:11.192Z,13.60
2022-09-27T10:13:05.814Z,12.30
2022-09-27T10:16:17.783Z,12.13
2022-09-27T10:19:06.399Z,11.93
2022-09-27T10:21:53.609Z,10.32
2022-09-27T10:25:02.478Z,11.48
2022-09-27T10:28:03.422Z,10.13
2022-09-27T10:30:57.329Z,8.65
2022-09-27T10:34:02.190Z,7.50
2022-09-27T10:37:06.153Z,8.30
2022-09-27T10:39:53.693Z,8.25
2022-09-27T10:42:39.851Z,8.50
2022-09-27T10:45:34.472Z,9.73
2022-09-27T10:48:29.353Z,8.02
2022-09-27T10:51:37.826Z,7.97
2022-09-27T10:54:30.376Z,9.00
2022-09-27T10:57:21.607Z,8.30
2022-09-27T11:00:29.668Z,7.55
2022-09-27T11:03:17.410Z,8.60
2022-09-27T11:06:37.689Z,8.38
2022-09-27T11:09:26.821Z,7.40
2022-09-27T11:12:14.518Z,7.18
2022-09-27T11:15:09.689Z,7.32
2022-09-27T11:18:37.871Z,7.55
2022-09-27T11:24:37.791Z,6.53
2022-09-27T11:27:27.702Z,6.80
2022-09-27T11:30:16.800Z,5.57
2022-09-27T11:33:37.481Z,4.30
2022-09-27T11:36:45.053Z,5.10
2022-09-27T11:40:16.086Z,5.82
2022-09-27T11:43:38.286Z,6.63
2022-09-27T11:46:41.537Z,4.97
2022-09-27T11:49:49.639Z,5.88
2022-09-27T11:52:54.139Z,4.65
2022-09-27T11:55:40.107Z,3.40
2022-09-27T11:59:00.076Z,4.07
2022-09-27T12:02:23.693Z,3.58
2022-09-27T12:05:25.591Z,5.47
2022-09-27T12:08:55.185Z,4.00
2022-09-27T12:12:05.068Z,3.03
2022-09-27T12:14:56.418Z,3.80
2022-09-27T12:17:46.566Z,2.90
2022-09-27T12:20:37.354Z,2.13
2022-09-27T12:23:39.250Z,1.48
2022-09-27T12:26:45.129Z,1.80
2022-09-27T12:29:41.854Z,2.22
2022-09-27T12:32:32.201Z,2.30
2022-09-27T12:35:27.349Z,1.45
2022-09-27T12:38:18.987Z,1.35
2022-09-27T12:41:12.247Z,1.20
2022-09-27T12:44:13.309Z,1.30
2022-09-27T12:47:27.914Z,1.38
2022-09-27T12:50:30.127Z,1.38
2022-09-27T12:53:47.728Z,0.98
2022-09-27T12:56:55.127Z,1.52
2022-09-27T12:59:50.021Z,0.85
2022-09-27T13:03:14.808Z,1.30
2022-09-27T13:06:23.341Z,1.73
2022-09-27T13:09:12.349Z,1.55
2022-09-27T13:12:11.039Z,1.13
2022-09-27T13:15:06.811Z,1.20
2022-09-27T13:17:56.550Z,0.90
2022-09-27T13:21:06.698Z,1.08
2022-09-27T13:24:03.688Z,1.08
2022-09-27T13:27:01.561Z,1.58
2022-09-27T13:29:47.951Z,1.67
2022-09-27T13:32:34.479Z,1.83
2022-09-27T13:35:30.879Z,1.23
2022-09-27T13:38:24.013Z,1.23
2022-09-27T13:41:19.468Z,1.73
2022-09-27T13:44:24.219Z,1.00
2022-09-27T13:47:26.067Z,1.30
2022-09-27T13:50:26.815Z,1.20
2022-09-27T13:53:31.556Z,1.35
2022-09-27T13:56:36.609Z,1.38
2022-09-27T13:59:31.879Z,1.20
2022-09-27T14:02:55.760Z,1.00
2022-09-27T14:05:50.576Z,0.82
2022-09-27T14:08:48.367Z,0.90
2022-09-27T14:11:38.941Z,0.85
2022-09-27T14:14:28.535Z,0.80
2022-09-27T14:17:17.323Z,0.93
2022-09-27T14:20:07.243Z,0.70
2022-09-27T14:22:54.743Z,3.15
2022-09-27T14:25:51.239Z,1.00
2022-09-27T14:28:41.588Z,1.10
2022-09-27T14:32:10.355Z,0.90
2022-09-27T14:35:49.408Z,1.10
2022-09-27T14:38:39.174Z,1.80
2022-09-27T14:42:02.317Z,1.05
2022-09-27T14:44:49.429Z,1.10
2022-09-27T14:47:35.322Z,1.25
2022-09-27T14:50:24.956Z,1.42
2022-09-27T14:53:26.226Z,1.50
2022-09-27T14:56:18.266Z,1.50
2022-09-27T14:59:09.079Z,1.38
2022-09-27T15:01:55.218Z,1.30
2022-09-27T15:04:47.705Z,1.25
2022-09-27T15:07:43.319Z,1.10
2022-09-27T15:10:31.487Z,1.50
2022-09-27T15:13:19.435Z,1.38
2022-09-27T15:16:20.294Z,1.10
2022-09-27T15:19:26.854Z,1.77
2022-09-27T15:22:43.835Z,1.60
2022-09-27T15:25:36.013Z,1.42
2022-09-27T15:28:21.413Z,1.50
2022-09-27T15:31:08.279Z,2.28
2022-09-27T15:33:56.465Z,1.42
2022-09-27T15:36:56.126Z,1.38
2022-09-27T15:39:42.765Z,1.50
2022-09-27T15:42:28.368Z,1.45
2022-09-27T15:45:31.534Z,1.50
2022-09-27T15:48:20.048Z,1.60
2022-09-27T15:51:40.732Z,1.42
2022-09-27T15:54:33.203Z,1.80
2022-09-27T15:57:19.020Z,1.42
2022-09-27T16:00:05.796Z,1.52
2022-09-27T16:02:57.696Z,1.38
2022-09-27T16:05:43.970Z,2.03
2022-09-27T16:08:29.716Z,2.08
2022-09-27T16:11:17.455Z,1.50
2022-09-27T16:14:03.105Z,1.35
2022-09-27T16:16:54.344Z,1.48
2022-09-27T16:19:39.803Z,1.58
2022-09-27T16:22:25.688Z,1.90
2022-09-27T16:25:11.471Z,1.88
2022-09-27T16:28:01.723Z,1.95
2022-09-27T16:30:48.209Z,2.00
2022-09-27T16:33:35.717Z,1.50
2022-09-27T16:36:21.463Z,1.75
2022-09-27T16:39:10.676Z,1.33
2022-09-27T16:41:56.310Z,1.73
2022-09-27T16:44:41.838Z,2.05
2022-09-27T16:47:31.454Z,1.60
2022-09-27T16:50:35.847Z,1.70
2022-09-27T16:53:21.881Z,1.67
2022-09-27T16:56:07.536Z,1.95
2022-09-27T16:58:53.419Z,1.70
2022-09-27T17:01:39.789Z,2.25
2022-09-27T17:04:27.658Z,1.92
2022-09-27T17:07:13.138Z,1.50
2022-09-27T17:09:59.271Z,1.90
2022-09-27T17:12:49.132Z,1.67
2022-09-27T17:15:38.900Z,1.55
2022-09-27T17:18:24.533Z,1.70
2022-09-27T17:21:13.182Z,1.95
2022-09-27T17:23:59.015Z,1.65
2022-09-27T17:26:44.959Z,1.35
2022-09-27T17:29:30.990Z,1.52
2022-09-27T17:32:16.831Z,1.60
2022-09-27T17:35:02.747Z,1.70
2022-09-27T17:37:50.645Z,2.10
2022-09-27T17:40:36.266Z,2.20
2022-09-27T17:43:21.733Z,1.75
2022-09-27T17:46:09.466Z,1.85
2022-09-27T17:49:15.532Z,1.52
2022-09-27T17:52:01.365Z,1.80
2022-09-27T17:54:46.825Z,1.60
2022-09-27T17:57:32.523Z,1.88
2022-09-27T18:00:20.337Z,1.70
2022-09-27T18:03:06.141Z,2.05
2022-09-27T18:05:51.799Z,1.77
2022-09-27T18:08:38.125Z,1.73
2022-09-27T18:11:28.465Z,1.85
2022-09-27T18:14:14.314Z,1.73
2022-09-27T18:17:00.054Z,1.58
2022-09-27T18:19:45.585Z,1.92
2022-09-27T18:22:31.370Z,1.92
2022-09-27T18:25:16.827Z,1.90
2022-09-27T18:28:02.530Z,1.80
2022-09-27T18:30:48.287Z,1.80
2022-09-27T18:33:34.800Z,2.05
2022-09-27T18:36:22.988Z,1.40
2022-09-27T18:39:20.124Z,1.60
2022-09-27T18:42:05.803Z,2.13
2022-09-27T18:44:51.875Z,1.50
2022-09-27T18:47:37.589Z,1.77
2022-09-27T18:50:23.044Z,1.73
2022-09-27T18:53:09.170Z,1.70
2022-09-27T18:55:54.808Z,1.35
2022-09-27T18:58:42.294Z,1.60
2022-09-27T19:01:27.886Z,1.88
2022-09-27T19:04:20.418Z,1.63
2022-09-27T19:07:08.192Z,1.92
2022-09-27T19:09:53.646Z,1.65
2022-09-27T19:12:40.486Z,1.90
2022-09-27T19:15:26.683Z,2.00
2022-09-27T19:18:14.723Z,1.83
2022-09-27T19:21:10.275Z,1.88
2022-09-27T19:23:56.985Z,1.98
2022-09-27T19:26:42.829Z,1.77
2022-09-27T19:29:28.382Z,1.70
2022-09-27T19:32:13.900Z,2.00
2022-09-27T19:34:59.410Z,1.85
2022-09-27T19:37:45.155Z,1.67
2022-09-27T19:40:31.830Z,2.42
2022-09-27T19:43:17.403Z,2.20
2022-09-27T19:46:08.221Z,1.65
2022-09-27T19:48:55.252Z,1.65
2022-09-27T19:51:40.856Z,2.42
2022-09-27T19:54:26.309Z,1.80
2022-09-27T19:57:13.642Z,2.55
2022-09-27T19:59:59.227Z,1.98
2022-09-27T20:02:45.008Z,1.80
2022-09-27T20:05:30.537Z,1.83
2022-09-27T20:08:16.090Z,1.80
2022-09-27T20:11:06.523Z,2.03
2022-09-27T20:13:53.279Z,1.60
2022-09-27T20:16:41.451Z,1.73
2022-09-27T20:19:27.915Z,1.95
2022-09-27T20:22:13.767Z,2.08
2022-09-27T20:24:59.306Z,1.63
2022-09-27T20:27:45.259Z,1.35
2022-09-27T20:30:32.403Z,1.80
2022-09-27T20:33:36.790Z,1.90
2022-09-27T20:36:31.232Z,2.03
2022-09-27T20:39:17.291Z,2.20
2022-09-27T20:42:03.462Z,1.42
2022-09-27T20:44:53.980Z,1.92
2022-09-27T20:47:40.282Z,2.00
2022-09-27T20:50:25.870Z,1.45
2022-09-27T20:53:11.364Z,1.70
2022-09-27T20:55:59.266Z,1.33
2022-09-27T20:58:45.927Z,1.40
2022-09-27T21:01:32.821Z,1.48
2022-09-27T21:04:19.785Z,1.55
2022-09-27T21:07:05.472Z,1.48
2022-09-27T21:09:51.046Z,1.70
2022-09-27T21:12:36.697Z,1.75
2022-09-27T21:15:22.463Z,1.52
2022-09-27T21:18:07.926Z,1.25
2022-09-27T21:21:03.005Z,1.45
2022-09-27T21:23:57.062Z,1.80
2022-09-27T21:26:43.010Z,2.00
2022-09-27T21:29:28.666Z,2.08
2022-09-27T21:32:14.406Z,1.90
2022-09-27T21:35:00.355Z,1.58
2022-09-27T21:37:47.550Z,1.50
2022-09-27T21:40:33.887Z,1.50
2022-09-27T21:43:19.584Z,1.90
2022-09-27T21:46:15.484Z,2.40
2022-09-27T21:49:02.095Z,1.55
2022-09-27T21:51:48.071Z,1.45
2022-09-27T21:54:33.735Z,1.10
2022-09-27T21:57:19.533Z,1.60
2022-09-27T22:00:06.047Z,1.52
2022-09-27T22:02:57.375Z,1.73
2022-09-27T22:05:48.216Z,1.35
2022-09-27T22:08:34.030Z,1.67
2022-09-27T22:11:24.117Z,1.38
2022-09-27T22:14:11.541Z,1.80
2022-09-27T22:16:57.146Z,1.60
2022-09-27T22:19:42.681Z,1.65
2022-09-27T22:22:28.631Z,1.45
2022-09-27T22:25:14.234Z,1.30
2022-09-27T22:28:00.077Z,1.70
2022-09-27T22:30:45.824Z,1.77
2022-09-27T22:33:31.424Z,1.52
2022-09-27T22:36:17.667Z,1.60
2022-09-27T22:39:03.585Z,1.73
2022-09-27T22:41:50.197Z,1.48
2022-09-27T22:44:35.647Z,1.42
2022-09-27T22:47:21.369Z,1.60
2022-09-27T22:50:07.495Z,1.65
2022-09-27T22:52:52.813Z,1.60
2022-09-27T22:55:38.438Z,1.25
2022-09-27T22:58:24.675Z,1.52
2022-09-27T23:01:29.385Z,1.60
2022-09-27T23:04:15.290Z,1.73
2022-09-27T23:07:00.876Z,1.40
2022-09-27T23:09:46.745Z,1.50
2022-09-27T23:12:32.414Z,1.42
2022-09-27T23:15:18.897Z,2.03
2022-09-27T23:18:06.468Z,1.50
2022-09-27T23:20:52.030Z,1.48
2022-09-27T23:23:42.710Z,1.45
2022-09-27T23:26:29.187Z,1.40
2022-09-27T23:29:14.894Z,1.38
2022-09-27T23:32:00.868Z,1.30
2022-09-27T23:34:46.658Z,1.30
2022-09-27T23:37:32.649Z,1.58
2022-09-27T23:40:17.978Z,1.52
2022-09-27T23:43:04.512Z,1.10
2022-09-27T23:45:50.870Z,1.35
2022-09-27T23:48:36.812Z,1.30
2022-09-27T23:51:22.802Z,1.50
2022-09-27T23:54:08.492Z,1.20
2022-09-27T23:56:54.160Z,1.50
2022-09-27T23:59:40.195Z,1.60
